Time;durP1;ratioP1;P1;durP2;ratioP2;P2;SDS_P1;SDS_P2;PMS_P1;PMS_P2;Temp;Humidity;BMP_temperature;BMP_pressure;BME280_temperature;BME280_humidity;BME280_pressure;Samples;Min_cycle;Max_cycle;Signal;HPM_P1;HPM_P2
2022/10/10 00:01:52;;;;;;;13.00;5.20;;;;;;;6.29;69.23;99784.11;106254;1314;22655;-84
2022/10/10 00:04:22;;;;;;;18.00;5.40;;;;;;;6.31;69.10;99782.11;106213;1313;22041;-85
2022/10/10 00:06:52;;;;;;;14.50;5.40;;;;;;;6.32;69.32;99778.36;106381;1312;23012;-85
2022/10/10 00:19:17;;;;;;;13.20;4.60;;;;;;;6.19;69.35;99771.81;100160;1343;545503;-90
2022/10/10 00:21:44;;;;;;;13.70;4.50;;;;;;;6.15;69.05;99771.45;101993;1321;24423;-87
2022/10/10 00:24:10;;;;;;;12.60;4.10;;;;;;;6.13;69.46;99769.44;102325;1313;22507;-87
2022/10/10 00:26:37;;;;;;;11.90;4.00;;;;;;;6.11;69.35;99761.73;102217;1321;23899;-90
2022/10/10 00:29:04;;;;;;;11.10;3.80;;;;;;;6.12;69.52;99756.58;102145;1314;23632;-89
2022/10/10 00:31:30;;;;;;;10.60;3.90;;;;;;;6.14;69.62;99749.09;102268;1322;22489;-92
2022/10/10 00:33:57;;;;;;;13.00;4.20;;;;;;;6.15;69.50;99743.89;102363;1314;108670;-90
2022/10/10 00:36:24;;;;;;;10.60;3.90;;;;;;;6.14;69.50;99738.64;102502;1317;22493;-87
2022/10/10 00:38:51;;;;;;;10.50;3.80;;;;;;;6.12;69.63;99737.85;102283;1320;22489;-88
2022/10/10 00:41:17;;;;;;;10.90;3.80;;;;;;;6.08;69.60;99730.58;102499;1318;22556;-90
2022/10/10 00:44:02;;;;;;;11.00;4.10;;;;;;;6.04;69.59;99729.54;102357;1318;22488;-89
2022/10/10 00:46:29;;;;;;;11.30;4.50;;;;;;;5.97;69.67;99732.46;102283;1318;24304;-92
2022/10/10 00:48:56;;;;;;;9.80;3.50;;;;;;;5.92;69.60;99726.48;102817;1314;22943;-90
2022/10/10 00:51:22;;;;;;;9.90;3.50;;;;;;;5.88;69.74;99729.63;102707;1315;22483;-86
2022/10/10 00:53:52;;;;;;;9.00;3.10;;;;;;;5.87;69.64;99729.88;102783;1299;22470;-89
2022/10/10 00:56:24;;;;;;;9.40;3.10;;;;;;;5.86;70.01;99724.42;102807;1313;22868;-88
2022/10/10 00:58:54;;;;;;;12.00;3.50;;;;;;;5.88;69.69;99719.73;102906;1314;25298;-91
2022/10/10 01:01:21;;;;;;;8.20;3.40;;;;;;;5.91;69.91;99716.98;102892;1313;25540;-89
2022/10/10 01:03:47;;;;;;;11.20;3.60;;;;;;;5.92;69.79;99711.30;102811;1315;22458;-88
2022/10/10 01:06:14;;;;;;;8.90;3.40;;;;;;;5.93;69.80;99711.80;102864;1314;24313;-89
2022/10/10 01:08:42;;;;;;;11.80;3.60;;;;;;;5.92;69.99;99707.92;102595;1314;25298;-87
2022/10/10 01:11:36;;;;;;;13.20;3.90;;;;;;;5.91;70.00;99706.55;102930;1313;23200;-93
2022/10/10 01:14:38;;;;;;;10.80;4.40;;;;;;;5.86;70.05;99697.38;102884;1315;25426;-86
2022/10/10 01:17:15;;;;;;;16.90;4.30;;;;;;;5.82;69.94;99696.13;102885;1313;25517;-90
2022/10/10 01:20:01;;;;;;;11.50;3.70;;;;;;;5.81;69.89;99693.34;102688;1316;22480;-88
2022/10/10 01:22:38;;;;;;;9.70;3.60;;;;;;;5.82;69.95;99691.35;102889;1312;24331;-91
2022/10/10 01:25:24;;;;;;;9.00;3.50;;;;;;;5.83;70.04;99688.66;102793;1310;22484;-89
2022/10/10 01:27:56;;;;;;;11.40;4.40;;;;;;;5.86;70.24;99685.89;102764;1306;22499;-89
2022/10/10 01:30:23;;;;;;;10.30;3.90;;;;;;;5.88;70.17;99681.06;102737;1314;24283;-87
2022/10/10 01:32:57;;;;;;;11.20;3.90;;;;;;;5.87;70.27;99680.39;102861;1314;22495;-92
2022/10/10 01:35:32;;;;;;;10.80;4.60;;;;;;;5.85;70.28;99676.23;102871;1314;22446;-88
2022/10/10 01:38:04;;;;;;;11.20;4.20;;;;;;;5.82;70.11;99674.40;102853;1313;22604;-89
2022/10/10 01:40:52;;;;;;;10.30;4.90;;;;;;;5.78;70.24;99673.15;102733;1315;22599;-91
2022/10/10 01:43:19;;;;;;;11.20;4.60;;;;;;;5.74;70.12;99678.30;102862;1313;25551;-87
2022/10/10 01:45:49;;;;;;;12.60;4.70;;;;;;;5.71;70.17;99675.19;102787;1315;22496;-89
2022/10/10 01:48:24;;;;;;;12.40;4.40;;;;;;;5.72;70.36;99672.89;102698;1314;25789;-93
2022/10/10 01:51:18;;;;;;;11.10;4.20;;;;;;;5.74;70.26;99667.33;102613;1310;24415;-87
2022/10/10 01:53:50;;;;;;;9.90;4.20;;;;;;;5.77;70.31;99668.62;102814;1307;22470;-90
2022/10/10 01:56:59;;;;;;;12.90;4.40;;;;;;;5.77;70.31;99664.00;102854;1314;25413;-91
2022/10/10 01:59:53;;;;;;;11.40;4.10;;;;;;;5.77;70.25;99657.86;102740;1314;22502;-88
2022/10/10 02:02:46;;;;;;;13.30;4.40;;;;;;;5.73;70.37;99653.41;102839;1314;24672;-87
2022/10/10 02:05:30;;;;;;;11.80;4.10;;;;;;;5.68;70.31;99655.38;102950;1313;22468;-87
2022/10/10 02:08:34;;;;;;;13.60;4.60;;;;;;;5.63;70.46;99656.13;102639;1314;22537;-87
2022/10/10 02:11:08;;;;;;;13.70;5.30;;;;;;;5.57;70.23;99647.55;102201;1319;22481;-93
2022/10/10 02:13:41;;;;;;;11.70;5.50;;;;;;;5.54;70.56;99649.46;102436;1319;25587;-87
2022/10/10 02:16:14;;;;;;;14.00;5.50;;;;;;;5.54;70.56;99649.98;102946;1313;25502;-90
2022/10/10 02:18:44;;;;;;;11.30;4.50;;;;;;;5.55;70.70;99645.33;102772;1315;22510;-91
2022/10/10 02:21:13;;;;;;;11.40;4.90;;;;;;;5.60;70.51;99641.44;102806;1307;22705;-88
2022/10/10 02:23:42;;;;;;;13.60;4.80;;;;;;;5.64;70.60;99636.13;102864;1313;22484;-89
2022/10/10 02:26:12;;;;;;;12.40;5.30;;;;;;;5.68;70.53;99636.67;102983;1313;22470;-93
2022/10/10 02:28:49;;;;;;;11.40;5.40;;;;;;;5.68;70.51;99634.17;102795;1314;22598;-93
2022/10/10 02:31:23;;;;;;;13.40;5.20;;;;;;;5.68;70.40;99630.30;102841;1313;24238;-90
2022/10/10 05:44:34;;;;;;;15.70;7.60;;;;;;;5.29;72.03;99472.73;100761;1329;545027;-93
2022/10/10 05:47:03;;;;;;;19.10;8.70;;;;;;;5.38;72.02;99473.20;102142;1320;25300;-87
2022/10/10 05:49:30;;;;;;;18.80;7.80;;;;;;;5.49;71.96;99470.77;102535;1319;22521;-88
